createdAt,value
2023-03-08T00:01:57.500Z,36.50
2023-03-08T00:06:54.172Z,35.28
2023-03-08T00:11:50.573Z,38.85
2023-03-08T00:16:46.888Z,34.05
2023-03-08T00:21:43.244Z,28.95
2023-03-08T00:26:39.583Z,31.70
2023-03-08T00:31:35.954Z,32.28
2023-03-08T00:36:32.309Z,29.15
2023-03-08T00:41:28.737Z,28.60
2023-03-08T00:46:26.041Z,28.25
2023-03-08T00:51:22.880Z,27.67
2023-03-08T00:56:19.355Z,24.63
2023-03-08T01:01:18.430Z,16.42
2023-03-08T01:06:15.978Z,14.88
2023-03-08T01:11:26.666Z,22.10
2023-03-08T01:16:29.026Z,14.07
2023-03-08T01:21:30.055Z,17.13
2023-03-08T01:26:27.226Z,13.43
2023-03-08T01:31:29.080Z,15.90
2023-03-08T01:36:27.651Z,13.73
2023-03-08T01:41:27.763Z,13.10
2023-03-08T01:46:30.162Z,19.33
2023-03-08T01:51:33.955Z,11.98
2023-03-08T01:56:30.676Z,12.35
2023-03-08T02:01:27.336Z,15.77
2023-03-08T02:06:23.772Z,15.15
2023-03-08T02:11:22.076Z,16.48
2023-03-08T02:16:19.811Z,16.30
2023-03-08T02:21:16.114Z,13.90
2023-03-08T02:26:12.491Z,15.18
2023-03-08T02:31:09.970Z,18.65
2023-03-08T02:36:08.284Z,16.63
2023-03-08T02:41:04.792Z,17.85
2023-03-08T02:46:01.148Z,15.88
2023-03-08T02:50:57.482Z,19.63
2023-03-08T02:55:53.788Z,24.40
2023-03-08T03:00:50.394Z,16.98
2023-03-08T03:05:46.793Z,15.20
2023-03-08T03:10:43.184Z,22.40
2023-03-08T03:15:39.979Z,22.20
2023-03-08T03:20:36.296Z,21.58
2023-03-08T03:25:37.040Z,19.83
2023-03-08T03:30:33.345Z,22.77
2023-03-08T03:35:29.637Z,22.27
2023-03-08T03:40:25.966Z,23.45
2023-03-08T03:45:22.428Z,25.30
2023-03-08T03:50:18.887Z,30.90
2023-03-08T03:55:15.223Z,29.88
2023-03-08T04:00:12.037Z,35.88
2023-03-08T04:05:08.529Z,38.65
2023-03-08T04:10:05.271Z,39.65
2023-03-08T04:15:01.646Z,35.05
2023-03-08T04:19:58.419Z,32.17
2023-03-08T04:24:54.729Z,38.17
2023-03-08T04:29:52.013Z,37.78
2023-03-08T04:34:48.352Z,43.00
2023-03-08T04:39:44.651Z,41.75
2023-03-08T04:44:41.014Z,43.45
2023-03-08T04:49:37.341Z,46.67
2023-03-08T04:54:33.681Z,43.15
2023-03-08T04:59:30.036Z,51.00
2023-03-08T05:04:26.501Z,53.03
2023-03-08T05:09:22.814Z,46.25
2023-03-08T05:14:19.389Z,48.85
2023-03-08T05:19:15.769Z,47.30
2023-03-08T05:24:12.076Z,53.63
2023-03-08T05:29:08.422Z,60.65
2023-03-08T05:34:04.950Z,60.72
2023-03-08T05:39:01.299Z,50.92
2023-03-08T05:43:58.627Z,51.35
2023-03-08T05:48:54.963Z,53.47
2023-03-08T05:53:51.329Z,61.30
2023-03-08T05:58:48.514Z,49.95
2023-03-08T06:03:46.409Z,48.08
2023-03-08T06:08:43.322Z,52.00
2023-03-08T06:13:40.055Z,52.50
2023-03-08T06:18:38.287Z,51.25
2023-03-08T06:23:35.646Z,53.65
2023-03-08T06:28:32.505Z,53.70
2023-03-08T06:33:31.027Z,56.85
2023-03-08T06:38:30.170Z,45.58
2023-03-08T06:43:27.787Z,47.20
2023-03-08T06:48:24.429Z,46.65
2023-03-08T06:53:20.936Z,53.10
2023-03-08T06:58:17.312Z,55.80
2023-03-08T07:03:13.754Z,54.55
2023-03-08T07:08:10.076Z,58.15
2023-03-08T07:13:07.327Z,50.80
2023-03-08T07:18:03.739Z,56.38
2023-03-08T07:23:01.900Z,53.63
2023-03-08T07:27:59.385Z,48.63
2023-03-08T07:32:55.738Z,52.28
2023-03-08T07:37:52.164Z,65.35
2023-03-08T07:42:48.887Z,55.72
2023-03-08T07:47:45.191Z,48.50
2023-03-08T07:52:41.507Z,50.95
2023-03-08T07:57:37.824Z,48.50
2023-03-08T08:02:35.668Z,46.33
2023-03-08T08:07:32.386Z,45.63
2023-03-08T08:12:28.852Z,43.42
2023-03-08T08:17:25.663Z,39.60
2023-03-08T08:22:22.064Z,43.20
2023-03-08T08:27:18.355Z,41.88
2023-03-08T08:32:14.889Z,32.28
2023-03-08T08:37:11.263Z,39.90
2023-03-08T08:42:07.747Z,31.23
2023-03-08T08:47:04.365Z,35.55
2023-03-08T08:52:00.696Z,31.15
2023-03-08T08:56:57.025Z,31.25
2023-03-08T09:01:53.314Z,31.55
2023-03-08T09:06:49.924Z,27.98
2023-03-08T09:11:54.587Z,23.77
2023-03-08T09:16:52.681Z,22.50
2023-03-08T09:21:49.215Z,25.85
2023-03-08T09:26:45.523Z,22.70
2023-03-08T09:31:43.660Z,20.60
2023-03-08T09:36:40.564Z,22.33
2023-03-08T09:41:44.820Z,19.10
2023-03-08T09:46:48.872Z,21.30
2023-03-08T09:51:50.489Z,17.30
2023-03-08T09:56:50.091Z,20.08
2023-03-08T10:01:58.157Z,18.85
2023-03-08T10:07:27.219Z,12.73
2023-03-08T10:12:34.119Z,16.30
2023-03-08T10:17:55.082Z,14.88
2023-03-08T10:22:58.378Z,14.38
2023-03-08T10:27:56.647Z,14.48
2023-03-08T10:32:59.233Z,12.52
2023-03-08T10:37:55.540Z,12.15
2023-03-08T10:42:59.908Z,11.23
2023-03-08T10:48:01.639Z,12.80
2023-03-08T10:53:18.247Z,7.13
2023-03-08T10:58:32.543Z,7.43
2023-03-08T11:03:29.533Z,8.05
2023-03-08T11:08:32.415Z,7.25
2023-03-08T11:13:35.403Z,6.53
2023-03-08T11:18:47.274Z,4.68
2023-03-08T11:23:54.596Z,8.15
2023-03-08T11:29:16.481Z,7.22
2023-03-08T11:34:49.172Z,4.55
2023-03-08T11:39:53.550Z,3.75
2023-03-08T11:44:59.672Z,4.70
2023-03-08T11:50:16.889Z,5.30
2023-03-08T11:55:33.218Z,4.15
2023-03-08T12:00:40.624Z,3.25
2023-03-08T12:05:44.102Z,4.68
2023-03-08T12:10:48.016Z,4.20
2023-03-08T12:15:53.200Z,5.18
2023-03-08T12:20:55.135Z,8.40
2023-03-08T12:26:02.675Z,11.52
2023-03-08T12:30:59.239Z,3.53
2023-03-08T12:36:07.339Z,2.53
2023-03-08T12:41:07.038Z,3.35
2023-03-08T12:46:07.688Z,3.05
2023-03-08T12:51:13.004Z,4.20
2023-03-08T12:56:09.306Z,2.40
2023-03-08T13:01:23.079Z,1.50
2023-03-08T13:06:22.471Z,2.25
2023-03-08T13:11:19.901Z,1.92
2023-03-08T13:16:38.030Z,1.25
2023-03-08T13:21:41.565Z,2.90
2023-03-08T13:26:49.772Z,2.05
2023-03-08T13:31:48.537Z,2.38
2023-03-08T13:36:48.341Z,2.60
2023-03-08T13:41:46.634Z,2.10
2023-03-08T13:46:44.145Z,3.05
2023-03-08T13:51:44.182Z,2.35
2023-03-08T13:56:40.840Z,4.85
2023-03-08T14:01:47.229Z,3.63
2023-03-08T14:06:50.116Z,3.92
2023-03-08T14:12:13.068Z,4.72
2023-03-08T14:17:20.379Z,6.20
2023-03-08T14:22:32.266Z,4.03
2023-03-08T14:27:40.901Z,5.57
2023-03-08T14:32:38.564Z,3.13
2023-03-08T14:37:35.546Z,5.10
2023-03-08T14:42:49.106Z,4.47
2023-03-08T14:47:58.154Z,3.65
2023-03-08T14:52:56.409Z,4.20
2023-03-08T14:58:00.228Z,3.60
2023-03-08T15:02:57.777Z,4.18
2023-03-08T15:07:55.386Z,3.38
2023-03-08T15:12:52.391Z,3.67
2023-03-08T15:17:51.380Z,3.47
2023-03-08T15:22:54.084Z,5.13
2023-03-08T15:27:50.642Z,3.70
2023-03-08T15:32:47.208Z,4.30
2023-03-08T15:37:44.601Z,4.18
2023-03-08T15:42:40.986Z,5.30
2023-03-08T15:47:37.716Z,4.03
2023-03-08T15:52:35.648Z,4.40
2023-03-08T15:57:32.454Z,2.50
2023-03-08T16:02:28.907Z,4.38
2023-03-08T16:07:25.279Z,8.05
2023-03-08T16:12:21.774Z,5.07
2023-03-08T16:17:18.251Z,3.67
2023-03-08T16:22:14.686Z,5.95
2023-03-08T16:27:11.361Z,7.43
2023-03-08T16:32:08.362Z,3.58
2023-03-08T16:37:05.529Z,4.70
2023-03-08T16:42:01.914Z,4.45
2023-03-08T16:46:58.241Z,7.53
2023-03-08T16:51:55.393Z,6.30
2023-03-08T16:56:52.141Z,7.07
2023-03-08T17:01:49.851Z,7.03
2023-03-08T17:06:46.611Z,8.02
2023-03-08T17:11:43.509Z,7.78
2023-03-08T17:16:40.069Z,6.53
2023-03-08T17:21:38.787Z,10.88
2023-03-08T17:26:40.186Z,10.02
2023-03-08T17:31:36.769Z,9.93
2023-03-08T17:36:33.577Z,9.90
2023-03-08T17:41:30.177Z,10.63
2023-03-08T17:46:32.168Z,9.82
2023-03-08T17:51:31.283Z,12.75
2023-03-08T17:56:30.528Z,10.40
2023-03-08T18:01:29.949Z,7.03
2023-03-08T18:06:35.249Z,10.02
2023-03-08T18:11:37.301Z,10.75
2023-03-08T18:16:34.772Z,10.80
2023-03-08T18:21:33.031Z,13.68
2023-03-08T18:26:29.358Z,11.82
2023-03-08T18:31:26.296Z,12.15
2023-03-08T18:36:23.453Z,13.07
2023-03-08T18:41:25.596Z,16.02
2023-03-08T18:46:28.580Z,11.35
2023-03-08T18:51:25.493Z,13.57
2023-03-08T18:56:22.377Z,12.07
2023-03-08T19:01:18.872Z,15.10
2023-03-08T19:06:15.440Z,13.05
2023-03-08T19:11:14.563Z,12.80
2023-03-08T19:16:33.077Z,11.13
2023-03-08T19:21:33.017Z,13.18
2023-03-08T19:26:38.265Z,15.30
2023-03-08T19:31:36.732Z,11.35
2023-03-08T19:36:35.501Z,11.77
2023-03-08T19:41:32.267Z,14.80
2023-03-08T19:46:28.904Z,16.27
2023-03-08T19:51:25.638Z,15.93
2023-03-08T19:56:23.701Z,19.05
2023-03-08T20:01:20.269Z,18.77
2023-03-08T20:06:24.070Z,17.48
2023-03-08T20:11:20.992Z,17.98
2023-03-08T20:16:18.690Z,20.02
2023-03-08T20:21:16.127Z,22.52
2023-03-08T20:26:13.558Z,21.98
2023-03-08T20:31:12.232Z,21.88
2023-03-08T20:36:08.712Z,23.88
2023-03-08T20:41:12.089Z,26.10
2023-03-08T20:46:11.570Z,25.73
2023-03-08T20:51:10.870Z,29.00
2023-03-08T20:56:09.450Z,25.88
2023-03-08T21:01:34.007Z,32.33
2023-03-08T21:06:32.126Z,28.27
2023-03-08T21:11:44.850Z,27.92
2023-03-08T21:16:42.921Z,25.83
2023-03-08T21:21:42.442Z,28.25
2023-03-08T21:26:39.434Z,23.98
2023-03-08T21:31:39.435Z,29.55
2023-03-08T21:36:37.896Z,24.90
2023-03-08T21:41:38.297Z,29.60
2023-03-08T21:46:39.704Z,30.23
2023-03-08T21:51:38.328Z,26.20
2023-03-08T21:56:35.855Z,26.08
2023-03-08T22:01:33.129Z,28.10
2023-03-08T22:06:30.161Z,27.77
2023-03-08T22:11:26.587Z,23.38
2023-03-08T22:16:23.582Z,28.67
2023-03-08T22:21:21.119Z,27.65
2023-03-08T22:26:17.967Z,25.05
2023-03-08T22:31:20.090Z,24.45
2023-03-08T22:36:18.324Z,27.10
2023-03-08T22:41:21.206Z,24.00
2023-03-08T22:46:20.364Z,25.95
2023-03-08T22:51:23.341Z,23.52
2023-03-08T22:56:23.487Z,23.25
2023-03-08T23:01:22.233Z,28.17
2023-03-08T23:06:19.333Z,25.30
2023-03-08T23:11:16.979Z,28.40
2023-03-08T23:16:15.618Z,27.90
2023-03-08T23:21:14.680Z,30.48
2023-03-08T23:26:14.167Z,29.95
2023-03-08T23:31:13.788Z,29.88
2023-03-08T23:36:12.780Z,28.95
2023-03-08T23:41:10.674Z,30.90
2023-03-08T23:46:09.901Z,24.67
2023-03-08T23:51:09.781Z,31.90
2023-03-08T23:56:06.987Z,29.95
